sensor_id;sensor_type;location;lat;lon;timestamp;P1;durP1;ratioP1;P2;durP2;ratioP2
70367;SDS011;57789;53.868;10.728;2023-04-24T00:00:55;4.57;;;2.93;;
70367;SDS011;57789;53.868;10.728;2023-04-24T00:03:26;3.30;;;2.57;;
70367;SDS011;57789;53.868;10.728;2023-04-24T00:05:52;3.83;;;3.00;;
70367;SDS011;57789;53.868;10.728;2023-04-24T00:08:21;2.63;;;2.40;;
70367;SDS011;57789;53.868;10.728;2023-04-24T00:10:48;3.00;;;2.70;;
70367;SDS011;57789;53.868;10.728;2023-04-24T00:13:14;3.03;;;2.73;;
70367;SDS011;57789;53.868;10.728;2023-04-24T00:15:40;5.00;;;2.93;;
70367;SDS011;57789;53.868;10.728;2023-04-24T00:18:06;2.90;;;2.60;;
70367;SDS011;57789;53.868;10.728;2023-04-24T00:20:32;2.60;;;2.40;;
70367;SDS011;57789;53.868;10.728;2023-04-24T00:22:58;4.60;;;2.40;;
70367;SDS011;57789;53.868;10.728;2023-04-24T00:25:24;3.33;;;2.80;;
70367;SDS011;57789;53.868;10.728;2023-04-24T00:27:49;4.20;;;3.00;;
70367;SDS011;57789;53.868;10.728;2023-04-24T00:30:15;7.17;;;2.27;;
70367;SDS011;57789;53.868;10.728;2023-04-24T00:32:41;2.60;;;2.30;;
70367;SDS011;57789;53.868;10.728;2023-04-24T00:35:07;3.20;;;2.67;;
70367;SDS011;57789;53.868;10.728;2023-04-24T00:37:33;2.80;;;2.60;;
70367;SDS011;57789;53.868;10.728;2023-04-24T00:40:01;3.00;;;2.10;;
70367;SDS011;57789;53.868;10.728;2023-04-24T00:42:27;8.90;;;2.90;;
70367;SDS011;57789;53.868;10.728;2023-04-24T00:44:53;4.30;;;2.93;;
70367;SDS011;57789;53.868;10.728;2023-04-24T00:47:21;3.00;;;2.43;;
70367;SDS011;57789;53.868;10.728;2023-04-24T00:49:48;3.97;;;2.90;;
70367;SDS011;57789;53.868;10.728;2023-04-24T00:52:13;2.90;;;2.70;;
70367;SDS011;57789;53.868;10.728;2023-04-24T00:54:42;3.13;;;2.83;;
70367;SDS011;57789;53.868;10.728;2023-04-24T00:57:09;7.20;;;3.00;;
70367;SDS011;57789;53.868;10.728;2023-04-24T00:59:38;4.90;;;3.23;;
70367;SDS011;57789;53.868;10.728;2023-04-24T01:02:06;2.90;;;2.60;;
70367;SDS011;57789;53.868;10.728;2023-04-24T01:04:32;9.10;;;2.93;;
70367;SDS011;57789;53.868;10.728;2023-04-24T01:06:58;4.60;;;3.53;;
70367;SDS011;57789;53.868;10.728;2023-04-24T01:09:25;3.53;;;2.37;;
70367;SDS011;57789;53.868;10.728;2023-04-24T01:11:51;6.50;;;3.30;;
70367;SDS011;57789;53.868;10.728;2023-04-24T01:14:17;5.97;;;3.20;;
70367;SDS011;57789;53.868;10.728;2023-04-24T01:16:42;3.03;;;2.70;;
70367;SDS011;57789;53.868;10.728;2023-04-24T01:19:08;5.30;;;3.50;;
70367;SDS011;57789;53.868;10.728;2023-04-24T01:21:37;3.77;;;3.23;;
70367;SDS011;57789;53.868;10.728;2023-04-24T01:24:03;3.53;;;3.10;;
70367;SDS011;57789;53.868;10.728;2023-04-24T01:26:30;4.67;;;3.20;;
70367;SDS011;57789;53.868;10.728;2023-04-24T01:28:56;6.73;;;3.70;;
70367;SDS011;57789;53.868;10.728;2023-04-24T01:31:23;3.30;;;3.00;;
70367;SDS011;57789;53.868;10.728;2023-04-24T01:33:49;3.53;;;3.23;;
70367;SDS011;57789;53.868;10.728;2023-04-24T01:36:16;3.90;;;3.00;;
70367;SDS011;57789;53.868;10.728;2023-04-24T01:38:41;3.73;;;3.37;;
70367;SDS011;57789;53.868;10.728;2023-04-24T01:41:07;3.77;;;3.20;;
70367;SDS011;57789;53.868;10.728;2023-04-24T01:43:33;3.30;;;3.00;;
70367;SDS011;57789;53.868;10.728;2023-04-24T01:45:59;4.37;;;3.37;;
70367;SDS011;57789;53.868;10.728;2023-04-24T01:48:25;4.30;;;3.00;;
70367;SDS011;57789;53.868;10.728;2023-04-24T01:50:51;4.03;;;3.27;;
70367;SDS011;57789;53.868;10.728;2023-04-24T01:53:17;3.17;;;2.83;;
70367;SDS011;57789;53.868;10.728;2023-04-24T01:55:42;3.53;;;3.23;;
70367;SDS011;57789;53.868;10.728;2023-04-24T01:58:08;4.40;;;3.40;;
70367;SDS011;57789;53.868;10.728;2023-04-24T02:00:34;4.40;;;3.27;;
70367;SDS011;57789;53.868;10.728;2023-04-24T02:03:00;3.17;;;2.70;;
70367;SDS011;57789;53.868;10.728;2023-04-24T02:05:27;2.47;;;2.20;;
70367;SDS011;57789;53.868;10.728;2023-04-24T02:07:53;3.30;;;3.00;;
70367;SDS011;57789;53.868;10.728;2023-04-24T02:10:19;4.50;;;2.90;;
70367;SDS011;57789;53.868;10.728;2023-04-24T02:12:44;4.60;;;3.30;;
70367;SDS011;57789;53.868;10.728;2023-04-24T02:15:10;6.70;;;3.90;;
70367;SDS011;57789;53.868;10.728;2023-04-24T02:17:37;3.10;;;2.80;;
70367;SDS011;57789;53.868;10.728;2023-04-24T02:20:03;4.40;;;4.00;;
70367;SDS011;57789;53.868;10.728;2023-04-24T02:22:30;3.40;;;3.00;;
70367;SDS011;57789;53.868;10.728;2023-04-24T02:24:56;3.37;;;2.83;;
70367;SDS011;57789;53.868;10.728;2023-04-24T02:27:22;6.17;;;3.20;;
70367;SDS011;57789;53.868;10.728;2023-04-24T02:29:48;3.97;;;2.80;;
70367;SDS011;57789;53.868;10.728;2023-04-24T02:32:14;3.10;;;2.80;;
70367;SDS011;57789;53.868;10.728;2023-04-24T02:34:40;3.40;;;3.10;;
70367;SDS011;57789;53.868;10.728;2023-04-24T02:37:06;3.87;;;3.40;;
70367;SDS011;57789;53.868;10.728;2023-04-24T02:39:33;5.23;;;3.10;;
70367;SDS011;57789;53.868;10.728;2023-04-24T02:41:59;4.00;;;3.07;;
70367;SDS011;57789;53.868;10.728;2023-04-24T02:44:26;3.37;;;3.07;;
70367;SDS011;57789;53.868;10.728;2023-04-24T02:46:52;6.67;;;4.20;;
70367;SDS011;57789;53.868;10.728;2023-04-24T02:49:18;3.60;;;3.20;;
70367;SDS011;57789;53.868;10.728;2023-04-24T02:51:43;5.30;;;3.50;;
70367;SDS011;57789;53.868;10.728;2023-04-24T02:54:09;3.20;;;2.90;;
70367;SDS011;57789;53.868;10.728;2023-04-24T02:56:35;3.50;;;3.20;;
70367;SDS011;57789;53.868;10.728;2023-04-24T02:59:01;4.10;;;3.47;;
70367;SDS011;57789;53.868;10.728;2023-04-24T03:01:27;3.83;;;3.13;;
70367;SDS011;57789;53.868;10.728;2023-04-24T03:03:53;3.63;;;3.33;;
70367;SDS011;57789;53.868;10.728;2023-04-24T03:06:19;4.40;;;2.83;;
70367;SDS011;57789;53.868;10.728;2023-04-24T03:08:45;5.83;;;3.53;;
70367;SDS011;57789;53.868;10.728;2023-04-24T03:11:11;4.13;;;2.90;;
70367;SDS011;57789;53.868;10.728;2023-04-24T03:13:37;5.60;;;3.27;;
70367;SDS011;57789;53.868;10.728;2023-04-24T03:16:03;6.13;;;3.50;;
70367;SDS011;57789;53.868;10.728;2023-04-24T03:18:28;5.73;;;4.30;;
70367;SDS011;57789;53.868;10.728;2023-04-24T03:20:56;5.23;;;3.50;;
70367;SDS011;57789;53.868;10.728;2023-04-24T03:23:22;3.60;;;3.30;;
70367;SDS011;57789;53.868;10.728;2023-04-24T03:25:47;5.30;;;3.37;;
70367;SDS011;57789;53.868;10.728;2023-04-24T03:28:13;3.67;;;3.20;;
70367;SDS011;57789;53.868;10.728;2023-04-24T03:30:39;4.80;;;3.53;;
70367;SDS011;57789;53.868;10.728;2023-04-24T03:33:05;3.63;;;2.97;;
70367;SDS011;57789;53.868;10.728;2023-04-24T03:35:31;6.10;;;3.73;;
70367;SDS011;57789;53.868;10.728;2023-04-24T03:37:57;5.40;;;3.40;;
70367;SDS011;57789;53.868;10.728;2023-04-24T03:40:22;6.67;;;3.20;;
70367;SDS011;57789;53.868;10.728;2023-04-24T03:42:48;3.77;;;3.03;;
70367;SDS011;57789;53.868;10.728;2023-04-24T03:45:14;5.10;;;4.00;;
70367;SDS011;57789;53.868;10.728;2023-04-24T03:47:40;5.23;;;3.47;;
70367;SDS011;57789;53.868;10.728;2023-04-24T03:50:05;6.20;;;3.30;;
70367;SDS011;57789;53.868;10.728;2023-04-24T03:52:33;4.67;;;3.00;;
70367;SDS011;57789;53.868;10.728;2023-04-24T03:54:58;5.67;;;4.20;;
70367;SDS011;57789;53.868;10.728;2023-04-24T03:57:24;5.50;;;3.47;;
70367;SDS011;57789;53.868;10.728;2023-04-24T03:59:50;6.47;;;2.97;;
70367;SDS011;57789;53.868;10.728;2023-04-24T04:02:16;5.83;;;2.97;;
70367;SDS011;57789;53.868;10.728;2023-04-24T04:04:42;4.23;;;2.53;;
70367;SDS011;57789;53.868;10.728;2023-04-24T04:07:08;8.63;;;2.20;;
70367;SDS011;57789;53.868;10.728;2023-04-24T04:09:33;2.33;;;2.13;;
70367;SDS011;57789;53.868;10.728;2023-04-24T04:11:59;2.13;;;1.60;;
70367;SDS011;57789;53.868;10.728;2023-04-24T04:14:25;2.00;;;1.90;;
70367;SDS011;57789;53.868;10.728;2023-04-24T04:16:52;5.70;;;2.10;;
70367;SDS011;57789;53.868;10.728;2023-04-24T04:19:17;1.80;;;1.70;;
70367;SDS011;57789;53.868;10.728;2023-04-24T04:21:45;1.77;;;1.67;;
70367;SDS011;57789;53.868;10.728;2023-04-24T04:24:11;4.03;;;1.83;;
70367;SDS011;57789;53.868;10.728;2023-04-24T04:26:37;1.77;;;1.67;;
70367;SDS011;57789;53.868;10.728;2023-04-24T04:29:03;2.53;;;2.10;;
70367;SDS011;57789;53.868;10.728;2023-04-24T04:31:29;2.60;;;2.00;;
70367;SDS011;57789;53.868;10.728;2023-04-24T04:33:55;2.10;;;1.97;;
70367;SDS011;57789;53.868;10.728;2023-04-24T04:36:21;2.73;;;2.47;;
70367;SDS011;57789;53.868;10.728;2023-04-24T04:38:48;1.93;;;1.80;;
70367;SDS011;57789;53.868;10.728;2023-04-24T04:41:14;2.60;;;1.40;;
70367;SDS011;57789;53.868;10.728;2023-04-24T04:43:41;2.10;;;1.30;;
70367;SDS011;57789;53.868;10.728;2023-04-24T04:46:07;2.97;;;1.70;;
70367;SDS011;57789;53.868;10.728;2023-04-24T04:48:35;4.07;;;1.53;;
70367;SDS011;57789;53.868;10.728;2023-04-24T04:51:01;2.37;;;1.80;;
70367;SDS011;57789;53.868;10.728;2023-04-24T04:53:27;2.03;;;1.90;;
70367;SDS011;57789;53.868;10.728;2023-04-24T04:55:53;4.30;;;2.30;;
70367;SDS011;57789;53.868;10.728;2023-04-24T04:58:18;2.53;;;2.30;;
70367;SDS011;57789;53.868;10.728;2023-04-24T05:00:44;3.50;;;2.43;;
70367;SDS011;57789;53.868;10.728;2023-04-24T05:03:11;2.37;;;1.70;;
70367;SDS011;57789;53.868;10.728;2023-04-24T05:05:37;3.60;;;2.60;;
70367;SDS011;57789;53.868;10.728;2023-04-24T05:08:06;5.37;;;2.10;;
70367;SDS011;57789;53.868;10.728;2023-04-24T05:10:32;10.10;;;5.20;;
70367;SDS011;57789;53.868;10.728;2023-04-24T05:12:58;17.10;;;10.37;;
70367;SDS011;57789;53.868;10.728;2023-04-24T05:15:24;3.50;;;2.83;;
70367;SDS011;57789;53.868;10.728;2023-04-24T05:17:50;3.70;;;2.63;;
70367;SDS011;57789;53.868;10.728;2023-04-24T05:20:18;4.80;;;3.30;;
70367;SDS011;57789;53.868;10.728;2023-04-24T05:22:44;3.07;;;2.00;;
70367;SDS011;57789;53.868;10.728;2023-04-24T05:25:10;4.50;;;2.93;;
70367;SDS011;57789;53.868;10.728;2023-04-24T05:27:37;1.70;;;1.60;;
70367;SDS011;57789;53.868;10.728;2023-04-24T05:30:03;1.60;;;1.50;;
70367;SDS011;57789;53.868;10.728;2023-04-24T05:32:30;1.40;;;1.30;;
70367;SDS011;57789;53.868;10.728;2023-04-24T05:34:55;3.30;;;1.53;;
70367;SDS011;57789;53.868;10.728;2023-04-24T05:37:21;2.27;;;1.30;;
70367;SDS011;57789;53.868;10.728;2023-04-24T05:39:47;3.80;;;2.57;;
70367;SDS011;57789;53.868;10.728;2023-04-24T05:42:13;4.37;;;3.30;;
70367;SDS011;57789;53.868;10.728;2023-04-24T05:44:38;2.33;;;1.77;;
70367;SDS011;57789;53.868;10.728;2023-04-24T05:47:04;1.83;;;1.20;;
70367;SDS011;57789;53.868;10.728;2023-04-24T05:49:30;2.57;;;2.00;;
70367;SDS011;57789;53.868;10.728;2023-04-24T05:51:57;7.03;;;4.20;;
70367;SDS011;57789;53.868;10.728;2023-04-24T05:54:23;3.00;;;1.70;;
70367;SDS011;57789;53.868;10.728;2023-04-24T05:56:49;1.10;;;1.00;;
70367;SDS011;57789;53.868;10.728;2023-04-24T05:59:15;1.73;;;1.63;;
70367;SDS011;57789;53.868;10.728;2023-04-24T06:01:41;2.40;;;1.40;;
70367;SDS011;57789;53.868;10.728;2023-04-24T06:04:07;2.73;;;1.73;;
70367;SDS011;57789;53.868;10.728;2023-04-24T06:06:33;5.80;;;1.30;;
70367;SDS011;57789;53.868;10.728;2023-04-24T06:09:00;1.40;;;0.90;;
70367;SDS011;57789;53.868;10.728;2023-04-24T06:11:27;2.13;;;1.40;;
70367;SDS011;57789;53.868;10.728;2023-04-24T06:13:53;7.10;;;1.70;;
70367;SDS011;57789;53.868;10.728;2023-04-24T06:16:19;2.87;;;1.60;;
70367;SDS011;57789;53.868;10.728;2023-04-24T06:18:45;1.60;;;1.20;;
70367;SDS011;57789;53.868;10.728;2023-04-24T06:21:12;1.03;;;0.93;;
70367;SDS011;57789;53.868;10.728;2023-04-24T06:23:38;4.70;;;0.83;;
70367;SDS011;57789;53.868;10.728;2023-04-24T06:26:03;0.97;;;0.87;;
70367;SDS011;57789;53.868;10.728;2023-04-24T06:28:29;1.43;;;0.87;;
70367;SDS011;57789;53.868;10.728;2023-04-24T06:30:55;1.33;;;0.63;;
70367;SDS011;57789;53.868;10.728;2023-04-24T06:33:21;1.37;;;1.20;;
70367;SDS011;57789;53.868;10.728;2023-04-24T06:35:47;5.80;;;1.00;;
70367;SDS011;57789;53.868;10.728;2023-04-24T06:38:13;1.37;;;1.00;;
70367;SDS011;57789;53.868;10.728;2023-04-24T06:40:38;2.60;;;1.87;;
70367;SDS011;57789;53.868;10.728;2023-04-24T06:43:04;0.90;;;0.80;;
70367;SDS011;57789;53.868;10.728;2023-04-24T06:45:31;1.67;;;1.27;;
70367;SDS011;57789;53.868;10.728;2023-04-24T06:47:56;1.67;;;1.17;;
70367;SDS011;57789;53.868;10.728;2023-04-24T06:50:22;1.10;;;1.00;;
70367;SDS011;57789;53.868;10.728;2023-04-24T06:52:49;1.20;;;1.00;;
70367;SDS011;57789;53.868;10.728;2023-04-24T06:55:14;2.10;;;0.80;;
70367;SDS011;57789;53.868;10.728;2023-04-24T06:57:41;0.93;;;0.80;;
70367;SDS011;57789;53.868;10.728;2023-04-24T07:00:09;1.30;;;0.80;;
70367;SDS011;57789;53.868;10.728;2023-04-24T07:02:36;1.50;;;1.10;;
70367;SDS011;57789;53.868;10.728;2023-04-24T07:05:02;1.37;;;0.80;;
70367;SDS011;57789;53.868;10.728;2023-04-24T07:07:29;1.03;;;0.93;;
70367;SDS011;57789;53.868;10.728;2023-04-24T07:09:54;2.43;;;1.30;;
70367;SDS011;57789;53.868;10.728;2023-04-24T07:12:21;0.80;;;0.80;;
70367;SDS011;57789;53.868;10.728;2023-04-24T07:14:47;1.43;;;0.97;;
70367;SDS011;57789;53.868;10.728;2023-04-24T07:17:13;1.07;;;0.90;;
70367;SDS011;57789;53.868;10.728;2023-04-24T07:19:39;1.97;;;1.03;;
70367;SDS011;57789;53.868;10.728;2023-04-24T07:22:05;1.13;;;0.97;;
70367;SDS011;57789;53.868;10.728;2023-04-24T07:24:31;1.20;;;1.10;;
70367;SDS011;57789;53.868;10.728;2023-04-24T07:26:57;4.87;;;1.10;;
70367;SDS011;57789;53.868;10.728;2023-04-24T07:29:24;1.47;;;1.20;;
70367;SDS011;57789;53.868;10.728;2023-04-24T07:31:50;2.70;;;1.00;;
70367;SDS011;57789;53.868;10.728;2023-04-24T07:34:16;1.57;;;1.47;;
70367;SDS011;57789;53.868;10.728;2023-04-24T07:36:41;1.60;;;1.40;;
70367;SDS011;57789;53.868;10.728;2023-04-24T07:39:08;1.80;;;1.40;;
70367;SDS011;57789;53.868;10.728;2023-04-24T07:41:34;1.63;;;1.03;;
70367;SDS011;57789;53.868;10.728;2023-04-24T07:43:59;2.10;;;1.10;;
70367;SDS011;57789;53.868;10.728;2023-04-24T07:46:25;1.50;;;1.00;;
70367;SDS011;57789;53.868;10.728;2023-04-24T07:48:54;1.83;;;1.30;;
70367;SDS011;57789;53.868;10.728;2023-04-24T07:51:20;1.47;;;1.20;;
70367;SDS011;57789;53.868;10.728;2023-04-24T07:53:46;1.30;;;0.87;;
70367;SDS011;57789;53.868;10.728;2023-04-24T07:56:12;1.03;;;0.93;;
70367;SDS011;57789;53.868;10.728;2023-04-24T07:58:38;1.50;;;1.00;;
70367;SDS011;57789;53.868;10.728;2023-04-24T08:01:04;1.57;;;1.30;;
70367;SDS011;57789;53.868;10.728;2023-04-24T08:03:30;1.00;;;0.90;;
70367;SDS011;57789;53.868;10.728;2023-04-24T08:05:56;1.20;;;1.03;;
70367;SDS011;57789;53.868;10.728;2023-04-24T08:08:22;1.50;;;0.83;;
70367;SDS011;57789;53.868;10.728;2023-04-24T08:10:48;1.90;;;1.80;;
70367;SDS011;57789;53.868;10.728;2023-04-24T08:13:14;0.93;;;0.90;;
70367;SDS011;57789;53.868;10.728;2023-04-24T08:15:40;2.43;;;1.20;;
70367;SDS011;57789;53.868;10.728;2023-04-24T08:18:06;1.90;;;1.00;;
70367;SDS011;57789;53.868;10.728;2023-04-24T08:20:32;2.70;;;1.20;;
70367;SDS011;57789;53.868;10.728;2023-04-24T08:22:58;1.03;;;0.90;;
70367;SDS011;57789;53.868;10.728;2023-04-24T08:25:23;1.10;;;1.00;;
70367;SDS011;57789;53.868;10.728;2023-04-24T08:27:50;1.23;;;1.07;;
70367;SDS011;57789;53.868;10.728;2023-04-24T08:30:16;1.10;;;1.00;;
70367;SDS011;57789;53.868;10.728;2023-04-24T08:32:42;1.80;;;1.00;;
70367;SDS011;57789;53.868;10.728;2023-04-24T08:35:08;1.20;;;1.10;;
70367;SDS011;57789;53.868;10.728;2023-04-24T08:37:34;2.03;;;1.57;;
70367;SDS011;57789;53.868;10.728;2023-04-24T08:40:01;0.93;;;0.90;;
70367;SDS011;57789;53.868;10.728;2023-04-24T08:42:32;2.20;;;0.97;;
70367;SDS011;57789;53.868;10.728;2023-04-24T08:44:59;1.47;;;1.20;;
70367;SDS011;57789;53.868;10.728;2023-04-24T08:47:25;1.43;;;1.10;;
70367;SDS011;57789;53.868;10.728;2023-04-24T08:49:53;2.47;;;0.97;;
70367;SDS011;57789;53.868;10.728;2023-04-24T08:52:20;1.33;;;1.23;;
70367;SDS011;57789;53.868;10.728;2023-04-24T08:54:47;2.03;;;0.93;;
70367;SDS011;57789;53.868;10.728;2023-04-24T08:57:13;4.53;;;1.40;;
70367;SDS011;57789;53.868;10.728;2023-04-24T08:59:40;1.57;;;1.27;;
70367;SDS011;57789;53.868;10.728;2023-04-24T09:02:08;1.53;;;1.37;;
70367;SDS011;57789;53.868;10.728;2023-04-24T09:04:36;2.80;;;1.10;;
70367;SDS011;57789;53.868;10.728;2023-04-24T09:07:03;1.03;;;0.93;;
70367;SDS011;57789;53.868;10.728;2023-04-24T09:09:31;0.80;;;0.80;;
70367;SDS011;57789;53.868;10.728;2023-04-24T09:11:58;2.07;;;1.30;;
70367;SDS011;57789;53.868;10.728;2023-04-24T09:14:24;2.40;;;1.93;;
70367;SDS011;57789;53.868;10.728;2023-04-24T09:16:50;3.40;;;1.10;;
70367;SDS011;57789;53.868;10.728;2023-04-24T09:19:16;2.20;;;1.20;;
70367;SDS011;57789;53.868;10.728;2023-04-24T09:21:45;1.10;;;0.90;;
70367;SDS011;57789;53.868;10.728;2023-04-24T09:24:15;4.30;;;0.80;;
70367;SDS011;57789;53.868;10.728;2023-04-24T09:26:47;3.40;;;2.33;;
70367;SDS011;57789;53.868;10.728;2023-04-24T09:29:14;7.00;;;2.57;;
70367;SDS011;57789;53.868;10.728;2023-04-24T09:31:41;1.67;;;1.10;;
70367;SDS011;57789;53.868;10.728;2023-04-24T09:34:09;2.00;;;1.23;;
70367;SDS011;57789;53.868;10.728;2023-04-24T09:36:36;1.30;;;0.90;;
70367;SDS011;57789;53.868;10.728;2023-04-24T09:39:11;1.83;;;1.20;;
70367;SDS011;57789;53.868;10.728;2023-04-24T09:41:53;1.73;;;1.57;;
70367;SDS011;57789;53.868;10.728;2023-04-24T09:44:24;1.87;;;1.00;;
70367;SDS011;57789;53.868;10.728;2023-04-24T09:46:56;1.47;;;1.10;;
70367;SDS011;57789;53.868;10.728;2023-04-24T09:49:24;4.03;;;2.27;;
70367;SDS011;57789;53.868;10.728;2023-04-24T09:52:06;4.80;;;3.50;;
70367;SDS011;57789;53.868;10.728;2023-04-24T09:54:34;9.03;;;1.40;;
70367;SDS011;57789;53.868;10.728;2023-04-24T09:57:01;1.80;;;1.50;;
70367;SDS011;57789;53.868;10.728;2023-04-24T09:59:27;1.77;;;1.67;;
70367;SDS011;57789;53.868;10.728;2023-04-24T10:01:54;1.60;;;1.50;;
70367;SDS011;57789;53.868;10.728;2023-04-24T10:04:22;1.50;;;1.40;;
70367;SDS011;57789;53.868;10.728;2023-04-24T10:06:49;1.57;;;1.47;;
70367;SDS011;57789;53.868;10.728;2023-04-24T10:09:17;1.63;;;1.50;;
70367;SDS011;57789;53.868;10.728;2023-04-24T10:11:45;2.43;;;2.23;;
70367;SDS011;57789;53.868;10.728;2023-04-24T10:14:18;5.90;;;2.50;;
70367;SDS011;57789;53.868;10.728;2023-04-24T10:16:47;3.73;;;2.43;;
70367;SDS011;57789;53.868;10.728;2023-04-24T10:19:14;3.50;;;3.20;;
70367;SDS011;57789;53.868;10.728;2023-04-24T10:21:42;4.57;;;3.10;;
70367;SDS011;57789;53.868;10.728;2023-04-24T10:24:14;4.80;;;3.30;;
70367;SDS011;57789;53.868;10.728;2023-04-24T10:26:42;3.33;;;3.03;;
70367;SDS011;57789;53.868;10.728;2023-04-24T10:29:10;3.77;;;2.90;;
70367;SDS011;57789;53.868;10.728;2023-04-24T10:31:37;3.70;;;3.00;;
70367;SDS011;57789;53.868;10.728;2023-04-24T10:34:05;6.03;;;2.37;;
70367;SDS011;57789;53.868;10.728;2023-04-24T10:36:32;3.13;;;2.40;;
70367;SDS011;57789;53.868;10.728;2023-04-24T10:39:00;2.77;;;2.10;;
70367;SDS011;57789;53.868;10.728;2023-04-24T10:41:30;3.83;;;2.27;;
70367;SDS011;57789;53.868;10.728;2023-04-24T10:44:06;2.43;;;2.23;;
70367;SDS011;57789;53.868;10.728;2023-04-24T10:46:37;4.87;;;3.30;;
70367;SDS011;57789;53.868;10.728;2023-04-24T10:49:04;3.80;;;2.17;;
70367;SDS011;57789;53.868;10.728;2023-04-24T10:51:45;2.87;;;2.40;;
70367;SDS011;57789;53.868;10.728;2023-04-24T10:54:40;3.20;;;2.90;;
70367;SDS011;57789;53.868;10.728;2023-04-24T10:59:47;3.00;;;2.80;;
70367;SDS011;57789;53.868;10.728;2023-04-24T11:02:38;3.20;;;2.30;;
70367;SDS011;57789;53.868;10.728;2023-04-24T11:05:08;2.83;;;2.63;;
70367;SDS011;57789;53.868;10.728;2023-04-24T11:10:46;2.70;;;2.50;;
70367;SDS011;57789;53.868;10.728;2023-04-24T11:13:22;4.00;;;1.97;;
70367;SDS011;57789;53.868;10.728;2023-04-24T11:16:33;4.17;;;2.30;;
70367;SDS011;57789;53.868;10.728;2023-04-24T11:21:32;4.67;;;2.83;;
70367;SDS011;57789;53.868;10.728;2023-04-24T11:26:48;4.17;;;3.27;;
70367;SDS011;57789;53.868;10.728;2023-04-24T11:29:16;3.53;;;2.87;;
70367;SDS011;57789;53.868;10.728;2023-04-24T11:31:49;3.60;;;3.30;;
70367;SDS011;57789;53.868;10.728;2023-04-24T11:34:16;4.40;;;3.30;;
70367;SDS011;57789;53.868;10.728;2023-04-24T11:36:44;5.67;;;3.37;;
70367;SDS011;57789;53.868;10.728;2023-04-24T11:39:12;7.47;;;2.90;;
70367;SDS011;57789;53.868;10.728;2023-04-24T11:41:38;3.13;;;2.27;;
70367;SDS011;57789;53.868;10.728;2023-04-24T11:44:05;4.00;;;3.17;;
70367;SDS011;57789;53.868;10.728;2023-04-24T11:46:32;3.30;;;3.00;;
70367;SDS011;57789;53.868;10.728;2023-04-24T11:48:58;4.63;;;3.00;;
70367;SDS011;57789;53.868;10.728;2023-04-24T11:51:25;4.67;;;3.70;;
70367;SDS011;57789;53.868;10.728;2023-04-24T11:53:55;6.77;;;3.60;;
70367;SDS011;57789;53.868;10.728;2023-04-24T11:56:24;4.53;;;3.63;;
70367;SDS011;57789;53.868;10.728;2023-04-24T11:58:53;3.67;;;3.23;;
70367;SDS011;57789;53.868;10.728;2023-04-24T12:01:22;3.90;;;3.60;;
70367;SDS011;57789;53.868;10.728;2023-04-24T12:03:48;4.07;;;3.67;;
70367;SDS011;57789;53.868;10.728;2023-04-24T12:06:16;6.10;;;3.30;;
70367;SDS011;57789;53.868;10.728;2023-04-24T12:08:45;5.50;;;3.70;;
70367;SDS011;57789;53.868;10.728;2023-04-24T12:11:14;4.50;;;3.90;;
70367;SDS011;57789;53.868;10.728;2023-04-24T12:13:40;6.13;;;4.10;;
70367;SDS011;57789;53.868;10.728;2023-04-24T12:16:06;5.47;;;4.97;;
70367;SDS011;57789;53.868;10.728;2023-04-24T12:18:32;8.10;;;4.80;;
70367;SDS011;57789;53.868;10.728;2023-04-24T12:21:17;6.23;;;5.17;;
70367;SDS011;57789;53.868;10.728;2023-04-24T12:23:44;5.97;;;4.37;;
70367;SDS011;57789;53.868;10.728;2023-04-24T12:26:11;6.50;;;3.57;;
70367;SDS011;57789;53.868;10.728;2023-04-24T12:28:38;5.53;;;4.17;;
70367;SDS011;57789;53.868;10.728;2023-04-24T12:31:04;7.20;;;4.80;;
70367;SDS011;57789;53.868;10.728;2023-04-24T12:33:33;7.03;;;5.70;;
70367;SDS011;57789;53.868;10.728;2023-04-24T12:36:00;7.80;;;4.93;;
70367;SDS011;57789;53.868;10.728;2023-04-24T12:38:27;8.13;;;5.10;;
70367;SDS011;57789;53.868;10.728;2023-04-24T12:41:08;6.00;;;4.53;;
70367;SDS011;57789;53.868;10.728;2023-04-24T12:43:35;7.70;;;5.20;;
70367;SDS011;57789;53.868;10.728;2023-04-24T12:46:02;8.80;;;6.23;;
70367;SDS011;57789;53.868;10.728;2023-04-24T12:48:28;12.20;;;8.83;;
70367;SDS011;57789;53.868;10.728;2023-04-24T12:50:56;7.73;;;5.80;;
70367;SDS011;57789;53.868;10.728;2023-04-24T12:53:26;14.30;;;6.37;;
70367;SDS011;57789;53.868;10.728;2023-04-24T12:55:53;9.03;;;5.30;;
70367;SDS011;57789;53.868;10.728;2023-04-24T12:58:19;7.23;;;4.70;;
70367;SDS011;57789;53.868;10.728;2023-04-24T13:00:45;9.63;;;5.13;;
70367;SDS011;57789;53.868;10.728;2023-04-24T13:03:12;6.47;;;4.73;;
70367;SDS011;57789;53.868;10.728;2023-04-24T13:05:38;8.27;;;3.80;;
70367;SDS011;57789;53.868;10.728;2023-04-24T13:08:04;3.87;;;3.40;;
70367;SDS011;57789;53.868;10.728;2023-04-24T13:10:30;3.70;;;3.20;;
70367;SDS011;57789;53.868;10.728;2023-04-24T13:12:56;5.40;;;4.40;;
70367;SDS011;57789;53.868;10.728;2023-04-24T13:15:22;7.10;;;5.57;;
70367;SDS011;57789;53.868;10.728;2023-04-24T13:17:48;8.20;;;4.77;;
70367;SDS011;57789;53.868;10.728;2023-04-24T13:20:14;7.60;;;5.20;;
70367;SDS011;57789;53.868;10.728;2023-04-24T13:22:40;8.30;;;5.87;;
70367;SDS011;57789;53.868;10.728;2023-04-24T13:25:06;5.03;;;4.20;;
70367;SDS011;57789;53.868;10.728;2023-04-24T13:27:32;7.40;;;4.07;;
70367;SDS011;57789;53.868;10.728;2023-04-24T13:29:58;8.50;;;4.53;;
70367;SDS011;57789;53.868;10.728;2023-04-24T13:32:24;5.50;;;4.77;;
70367;SDS011;57789;53.868;10.728;2023-04-24T13:34:50;7.10;;;4.20;;
70367;SDS011;57789;53.868;10.728;2023-04-24T13:37:16;6.30;;;4.73;;
70367;SDS011;57789;53.868;10.728;2023-04-24T13:39:41;5.10;;;4.10;;
70367;SDS011;57789;53.868;10.728;2023-04-24T13:42:08;5.07;;;3.90;;
70367;SDS011;57789;53.868;10.728;2023-04-24T13:44:33;5.00;;;3.23;;
70367;SDS011;57789;53.868;10.728;2023-04-24T13:46:59;5.13;;;4.00;;
70367;SDS011;57789;53.868;10.728;2023-04-24T13:49:25;4.83;;;3.90;;
70367;SDS011;57789;53.868;10.728;2023-04-24T13:51:52;4.47;;;3.73;;
70367;SDS011;57789;53.868;10.728;2023-04-24T13:54:20;3.37;;;3.03;;
70367;SDS011;57789;53.868;10.728;2023-04-24T13:56:45;4.77;;;3.40;;
70367;SDS011;57789;53.868;10.728;2023-04-24T13:59:12;4.93;;;4.20;;
70367;SDS011;57789;53.868;10.728;2023-04-24T14:01:38;5.30;;;4.10;;
70367;SDS011;57789;53.868;10.728;2023-04-24T14:04:04;6.13;;;3.60;;
70367;SDS011;57789;53.868;10.728;2023-04-24T14:06:30;5.50;;;3.80;;
70367;SDS011;57789;53.868;10.728;2023-04-24T14:08:56;3.90;;;3.37;;
70367;SDS011;57789;53.868;10.728;2023-04-24T14:11:22;4.73;;;3.67;;
70367;SDS011;57789;53.868;10.728;2023-04-24T14:13:48;5.67;;;3.27;;
70367;SDS011;57789;53.868;10.728;2023-04-24T14:16:14;4.17;;;3.33;;
70367;SDS011;57789;53.868;10.728;2023-04-24T14:18:40;4.63;;;3.70;;
70367;SDS011;57789;53.868;10.728;2023-04-24T14:21:06;4.20;;;3.57;;
70367;SDS011;57789;53.868;10.728;2023-04-24T14:23:32;4.03;;;2.93;;
70367;SDS011;57789;53.868;10.728;2023-04-24T14:25:58;3.03;;;2.67;;
70367;SDS011;57789;53.868;10.728;2023-04-24T14:28:24;2.80;;;2.57;;
70367;SDS011;57789;53.868;10.728;2023-04-24T14:30:51;2.80;;;2.57;;
70367;SDS011;57789;53.868;10.728;2023-04-24T14:33:17;4.20;;;2.77;;
70367;SDS011;57789;53.868;10.728;2023-04-24T14:35:43;3.47;;;3.17;;
70367;SDS011;57789;53.868;10.728;2023-04-24T14:38:09;7.80;;;3.87;;
70367;SDS011;57789;53.868;10.728;2023-04-24T14:40:35;5.90;;;5.27;;
70367;SDS011;57789;53.868;10.728;2023-04-24T14:43:02;4.67;;;4.17;;